sensor_id;sensor_type;location;lat;lon;timestamp;P1;durP1;ratioP1;P2;durP2;ratioP2
79009;SDS011;73031;44.726;37.760;2023-09-30T00:00:23;15.10;;;4.63;;
79009;SDS011;73031;44.726;37.760;2023-09-30T00:01:24;15.85;;;4.38;;
79009;SDS011;73031;44.726;37.760;2023-09-30T00:02:26;20.95;;;5.20;;
79009;SDS011;73031;44.726;37.760;2023-09-30T00:03:28;14.68;;;4.60;;
79009;SDS011;73031;44.726;37.760;2023-09-30T00:04:29;12.02;;;4.70;;
79009;SDS011;73031;44.726;37.760;2023-09-30T00:05:30;14.73;;;4.70;;
79009;SDS011;73031;44.726;37.760;2023-09-30T00:06:32;16.70;;;4.93;;
79009;SDS011;73031;44.726;37.760;2023-09-30T00:07:33;13.15;;;5.13;;
79009;SDS011;73031;44.726;37.760;2023-09-30T00:08:35;20.63;;;5.10;;
79009;SDS011;73031;44.726;37.760;2023-09-30T00:09:37;21.52;;;6.15;;
79009;SDS011;73031;44.726;37.760;2023-09-30T00:10:38;16.35;;;5.20;;
79009;SDS011;73031;44.726;37.760;2023-09-30T00:11:39;17.42;;;4.93;;
79009;SDS011;73031;44.726;37.760;2023-09-30T00:12:40;27.67;;;5.53;;
79009;SDS011;73031;44.726;37.760;2023-09-30T00:13:41;25.33;;;5.68;;
79009;SDS011;73031;44.726;37.760;2023-09-30T00:14:43;18.35;;;5.30;;
79009;SDS011;73031;44.726;37.760;2023-09-30T00:15:44;15.05;;;4.82;;
79009;SDS011;73031;44.726;37.760;2023-09-30T00:16:45;13.65;;;4.88;;
79009;SDS011;73031;44.726;37.760;2023-09-30T00:17:46;17.25;;;4.88;;
79009;SDS011;73031;44.726;37.760;2023-09-30T00:18:48;18.92;;;5.57;;
79009;SDS011;73031;44.726;37.760;2023-09-30T00:19:49;17.25;;;5.38;;
79009;SDS011;73031;44.726;37.760;2023-09-30T00:20:50;11.40;;;5.00;;
79009;SDS011;73031;44.726;37.760;2023-09-30T00:21:51;17.35;;;4.57;;
79009;SDS011;73031;44.726;37.760;2023-09-30T00:22:53;17.77;;;5.13;;
79009;SDS011;73031;44.726;37.760;2023-09-30T00:23:54;24.17;;;4.97;;
79009;SDS011;73031;44.726;37.760;2023-09-30T00:24:56;17.50;;;5.43;;
79009;SDS011;73031;44.726;37.760;2023-09-30T00:25:57;15.93;;;5.32;;
79009;SDS011;73031;44.726;37.760;2023-09-30T00:26:58;19.90;;;5.38;;
79009;SDS011;73031;44.726;37.760;2023-09-30T00:27:59;17.13;;;4.60;;
79009;SDS011;73031;44.726;37.760;2023-09-30T00:29:01;15.00;;;4.45;;
79009;SDS011;73031;44.726;37.760;2023-09-30T00:30:05;21.92;;;5.20;;
79009;SDS011;73031;44.726;37.760;2023-09-30T00:31:07;21.30;;;5.45;;
79009;SDS011;73031;44.726;37.760;2023-09-30T00:32:11;19.00;;;5.05;;
79009;SDS011;73031;44.726;37.760;2023-09-30T00:33:13;17.98;;;4.60;;
79009;SDS011;73031;44.726;37.760;2023-09-30T00:34:14;21.48;;;5.25;;
79009;SDS011;73031;44.726;37.760;2023-09-30T00:35:15;27.00;;;5.65;;
79009;SDS011;73031;44.726;37.760;2023-09-30T00:36:17;17.23;;;4.68;;
79009;SDS011;73031;44.726;37.760;2023-09-30T00:37:18;14.48;;;5.03;;
79009;SDS011;73031;44.726;37.760;2023-09-30T00:38:19;14.98;;;4.70;;
79009;SDS011;73031;44.726;37.760;2023-09-30T00:39:20;16.63;;;5.13;;
79009;SDS011;73031;44.726;37.760;2023-09-30T00:40:21;20.63;;;4.97;;
79009;SDS011;73031;44.726;37.760;2023-09-30T00:41:23;12.48;;;5.15;;
79009;SDS011;73031;44.726;37.760;2023-09-30T00:42:24;18.90;;;5.10;;
79009;SDS011;73031;44.726;37.760;2023-09-30T00:43:25;13.77;;;4.70;;
79009;SDS011;73031;44.726;37.760;2023-09-30T00:44:27;11.93;;;5.13;;
79009;SDS011;73031;44.726;37.760;2023-09-30T00:45:28;20.45;;;5.00;;
79009;SDS011;73031;44.726;37.760;2023-09-30T00:46:31;19.90;;;5.75;;
79009;SDS011;73031;44.726;37.760;2023-09-30T00:47:33;13.63;;;4.53;;
79009;SDS011;73031;44.726;37.760;2023-09-30T00:48:36;16.58;;;4.22;;
79009;SDS011;73031;44.726;37.760;2023-09-30T00:49:38;20.30;;;5.70;;
79009;SDS011;73031;44.726;37.760;2023-09-30T00:50:39;19.95;;;5.60;;
79009;SDS011;73031;44.726;37.760;2023-09-30T00:51:41;17.13;;;4.70;;
79009;SDS011;73031;44.726;37.760;2023-09-30T00:52:42;16.92;;;5.32;;
79009;SDS011;73031;44.726;37.760;2023-09-30T00:53:46;19.65;;;4.85;;
79009;SDS011;73031;44.726;37.760;2023-09-30T00:54:47;20.15;;;4.78;;
79009;SDS011;73031;44.726;37.760;2023-09-30T00:55:49;15.27;;;4.65;;
79009;SDS011;73031;44.726;37.760;2023-09-30T00:56:52;15.00;;;5.15;;
79009;SDS011;73031;44.726;37.760;2023-09-30T00:57:56;18.40;;;5.55;;
79009;SDS011;73031;44.726;37.760;2023-09-30T00:58:58;20.73;;;5.60;;
79009;SDS011;73031;44.726;37.760;2023-09-30T00:59:59;27.95;;;4.95;;
79009;SDS011;73031;44.726;37.760;2023-09-30T01:01:01;15.27;;;5.05;;
79009;SDS011;73031;44.726;37.760;2023-09-30T01:02:03;14.95;;;5.13;;
79009;SDS011;73031;44.726;37.760;2023-09-30T01:03:06;18.52;;;5.28;;
79009;SDS011;73031;44.726;37.760;2023-09-30T01:04:08;22.65;;;5.25;;
79009;SDS011;73031;44.726;37.760;2023-09-30T01:05:10;15.88;;;5.35;;
79009;SDS011;73031;44.726;37.760;2023-09-30T01:06:11;23.02;;;5.50;;
79009;SDS011;73031;44.726;37.760;2023-09-30T01:07:12;18.58;;;5.13;;
79009;SDS011;73031;44.726;37.760;2023-09-30T01:08:13;19.08;;;5.43;;
79009;SDS011;73031;44.726;37.760;2023-09-30T01:09:14;17.13;;;5.40;;
79009;SDS011;73031;44.726;37.760;2023-09-30T01:10:15;20.38;;;5.47;;
79009;SDS011;73031;44.726;37.760;2023-09-30T01:11:16;15.70;;;5.00;;
79009;SDS011;73031;44.726;37.760;2023-09-30T01:12:17;18.25;;;4.97;;
79009;SDS011;73031;44.726;37.760;2023-09-30T01:13:18;16.77;;;5.40;;
79009;SDS011;73031;44.726;37.760;2023-09-30T01:14:26;20.48;;;5.13;;
79009;SDS011;73031;44.726;37.760;2023-09-30T01:15:30;19.08;;;5.28;;
79009;SDS011;73031;44.726;37.760;2023-09-30T01:16:32;14.82;;;5.07;;
79009;SDS011;73031;44.726;37.760;2023-09-30T01:17:32;16.10;;;5.00;;
79009;SDS011;73031;44.726;37.760;2023-09-30T01:18:33;18.00;;;5.55;;
79009;SDS011;73031;44.726;37.760;2023-09-30T01:19:35;16.52;;;5.35;;
79009;SDS011;73031;44.726;37.760;2023-09-30T01:20:36;11.82;;;4.97;;
79009;SDS011;73031;44.726;37.760;2023-09-30T01:21:37;17.88;;;5.78;;
79009;SDS011;73031;44.726;37.760;2023-09-30T01:22:38;22.30;;;5.20;;
79009;SDS011;73031;44.726;37.760;2023-09-30T01:23:39;16.63;;;5.55;;
79009;SDS011;73031;44.726;37.760;2023-09-30T01:24:41;18.35;;;5.13;;
79009;SDS011;73031;44.726;37.760;2023-09-30T01:25:43;20.77;;;5.30;;
79009;SDS011;73031;44.726;37.760;2023-09-30T01:26:44;17.65;;;5.05;;
79009;SDS011;73031;44.726;37.760;2023-09-30T01:27:45;15.27;;;5.35;;
79009;SDS011;73031;44.726;37.760;2023-09-30T01:28:46;23.58;;;4.88;;
79009;SDS011;73031;44.726;37.760;2023-09-30T01:29:49;11.77;;;4.78;;
79009;SDS011;73031;44.726;37.760;2023-09-30T01:30:50;16.95;;;5.05;;
79009;SDS011;73031;44.726;37.760;2023-09-30T01:31:52;19.70;;;5.22;;
79009;SDS011;73031;44.726;37.760;2023-09-30T01:32:54;14.35;;;5.18;;
79009;SDS011;73031;44.726;37.760;2023-09-30T01:33:55;20.52;;;5.63;;
79009;SDS011;73031;44.726;37.760;2023-09-30T01:34:56;16.48;;;5.13;;
79009;SDS011;73031;44.726;37.760;2023-09-30T01:35:58;16.48;;;5.25;;
79009;SDS011;73031;44.726;37.760;2023-09-30T01:37:00;13.60;;;5.10;;
79009;SDS011;73031;44.726;37.760;2023-09-30T01:38:01;19.55;;;5.45;;
79009;SDS011;73031;44.726;37.760;2023-09-30T01:39:02;23.40;;;5.70;;
79009;SDS011;73031;44.726;37.760;2023-09-30T01:40:03;15.00;;;5.53;;
79009;SDS011;73031;44.726;37.760;2023-09-30T01:41:04;20.15;;;5.68;;
79009;SDS011;73031;44.726;37.760;2023-09-30T01:42:05;21.90;;;5.22;;
79009;SDS011;73031;44.726;37.760;2023-09-30T01:43:07;22.70;;;5.30;;
79009;SDS011;73031;44.726;37.760;2023-09-30T01:44:08;15.38;;;6.18;;
79009;SDS011;73031;44.726;37.760;2023-09-30T01:45:09;17.00;;;5.18;;
79009;SDS011;73031;44.726;37.760;2023-09-30T01:46:11;21.35;;;5.05;;
79009;SDS011;73031;44.726;37.760;2023-09-30T01:47:11;19.42;;;4.85;;
79009;SDS011;73031;44.726;37.760;2023-09-30T01:48:12;19.02;;;4.70;;
79009;SDS011;73031;44.726;37.760;2023-09-30T01:49:14;16.08;;;5.10;;
79009;SDS011;73031;44.726;37.760;2023-09-30T01:50:15;18.63;;;5.57;;
79009;SDS011;73031;44.726;37.760;2023-09-30T01:51:17;19.40;;;5.07;;
79009;SDS011;73031;44.726;37.760;2023-09-30T01:52:18;13.70;;;4.43;;
79009;SDS011;73031;44.726;37.760;2023-09-30T01:53:19;21.83;;;5.68;;
79009;SDS011;73031;44.726;37.760;2023-09-30T01:54:20;15.27;;;5.40;;
79009;SDS011;73031;44.726;37.760;2023-09-30T01:55:22;16.17;;;4.65;;
79009;SDS011;73031;44.726;37.760;2023-09-30T01:56:23;18.15;;;4.68;;
79009;SDS011;73031;44.726;37.760;2023-09-30T01:57:24;16.20;;;4.88;;
79009;SDS011;73031;44.726;37.760;2023-09-30T01:58:25;12.55;;;4.57;;
79009;SDS011;73031;44.726;37.760;2023-09-30T01:59:26;22.83;;;5.05;;
79009;SDS011;73031;44.726;37.760;2023-09-30T02:00:28;17.65;;;4.70;;
79009;SDS011;73031;44.726;37.760;2023-09-30T02:01:29;15.60;;;4.82;;
79009;SDS011;73031;44.726;37.760;2023-09-30T02:02:30;14.02;;;5.35;;
79009;SDS011;73031;44.726;37.760;2023-09-30T02:03:31;20.00;;;5.00;;
79009;SDS011;73031;44.726;37.760;2023-09-30T02:04:33;20.05;;;5.15;;
79009;SDS011;73031;44.726;37.760;2023-09-30T02:05:34;16.83;;;4.80;;
79009;SDS011;73031;44.726;37.760;2023-09-30T02:06:35;15.80;;;4.78;;
79009;SDS011;73031;44.726;37.760;2023-09-30T02:07:36;16.50;;;5.57;;
79009;SDS011;73031;44.726;37.760;2023-09-30T02:08:37;15.48;;;5.18;;
79009;SDS011;73031;44.726;37.760;2023-09-30T02:09:38;11.65;;;4.18;;
79009;SDS011;73031;44.726;37.760;2023-09-30T02:10:39;12.50;;;4.97;;
79009;SDS011;73031;44.726;37.760;2023-09-30T02:11:41;19.65;;;5.43;;
79009;SDS011;73031;44.726;37.760;2023-09-30T02:12:42;17.38;;;4.68;;
79009;SDS011;73031;44.726;37.760;2023-09-30T02:13:43;17.40;;;4.90;;
79009;SDS011;73031;44.726;37.760;2023-09-30T02:14:45;20.27;;;4.90;;
79009;SDS011;73031;44.726;37.760;2023-09-30T02:15:46;15.90;;;5.05;;
79009;SDS011;73031;44.726;37.760;2023-09-30T02:16:47;13.55;;;4.93;;
79009;SDS011;73031;44.726;37.760;2023-09-30T02:17:48;12.60;;;6.00;;
79009;SDS011;73031;44.726;37.760;2023-09-30T02:18:50;10.23;;;5.20;;
79009;SDS011;73031;44.726;37.760;2023-09-30T02:19:51;17.95;;;5.15;;
79009;SDS011;73031;44.726;37.760;2023-09-30T02:20:53;18.83;;;5.07;;
79009;SDS011;73031;44.726;37.760;2023-09-30T02:21:54;13.68;;;4.30;;
79009;SDS011;73031;44.726;37.760;2023-09-30T02:22:58;15.73;;;4.80;;
79009;SDS011;73031;44.726;37.760;2023-09-30T02:24:00;18.23;;;5.55;;
79009;SDS011;73031;44.726;37.760;2023-09-30T02:25:01;17.52;;;5.03;;
79009;SDS011;73031;44.726;37.760;2023-09-30T02:26:02;19.20;;;4.90;;
79009;SDS011;73031;44.726;37.760;2023-09-30T02:27:03;14.73;;;5.45;;
79009;SDS011;73031;44.726;37.760;2023-09-30T02:28:05;25.60;;;4.70;;
79009;SDS011;73031;44.726;37.760;2023-09-30T02:29:06;19.90;;;5.13;;
79009;SDS011;73031;44.726;37.760;2023-09-30T02:30:11;23.77;;;5.28;;
79009;SDS011;73031;44.726;37.760;2023-09-30T02:31:16;15.65;;;5.28;;
79009;SDS011;73031;44.726;37.760;2023-09-30T02:32:18;14.80;;;5.10;;
79009;SDS011;73031;44.726;37.760;2023-09-30T02:33:19;14.95;;;5.30;;
79009;SDS011;73031;44.726;37.760;2023-09-30T02:34:20;15.05;;;5.03;;
79009;SDS011;73031;44.726;37.760;2023-09-30T02:35:21;19.63;;;4.90;;
79009;SDS011;73031;44.726;37.760;2023-09-30T02:36:22;14.73;;;5.03;;
79009;SDS011;73031;44.726;37.760;2023-09-30T02:37:23;20.27;;;4.93;;
79009;SDS011;73031;44.726;37.760;2023-09-30T02:38:24;17.02;;;4.90;;
79009;SDS011;73031;44.726;37.760;2023-09-30T02:39:25;19.83;;;5.30;;
79009;SDS011;73031;44.726;37.760;2023-09-30T02:40:27;15.15;;;4.95;;
79009;SDS011;73031;44.726;37.760;2023-09-30T02:41:27;11.88;;;5.10;;
79009;SDS011;73031;44.726;37.760;2023-09-30T02:42:29;14.05;;;5.80;;
79009;SDS011;73031;44.726;37.760;2023-09-30T02:43:30;15.35;;;4.65;;
79009;SDS011;73031;44.726;37.760;2023-09-30T02:44:31;13.43;;;4.80;;
79009;SDS011;73031;44.726;37.760;2023-09-30T02:45:32;19.10;;;5.20;;
79009;SDS011;73031;44.726;37.760;2023-09-30T02:46:33;16.13;;;4.85;;
79009;SDS011;73031;44.726;37.760;2023-09-30T02:47:34;16.00;;;4.78;;
79009;SDS011;73031;44.726;37.760;2023-09-30T02:48:36;12.48;;;5.75;;
79009;SDS011;73031;44.726;37.760;2023-09-30T02:49:37;13.55;;;5.22;;
79009;SDS011;73031;44.726;37.760;2023-09-30T02:50:41;18.98;;;5.03;;
79009;SDS011;73031;44.726;37.760;2023-09-30T02:51:45;15.38;;;5.03;;
79009;SDS011;73031;44.726;37.760;2023-09-30T02:52:46;15.23;;;5.07;;
79009;SDS011;73031;44.726;37.760;2023-09-30T02:53:47;14.90;;;5.32;;
79009;SDS011;73031;44.726;37.760;2023-09-30T02:54:48;18.58;;;5.50;;
79009;SDS011;73031;44.726;37.760;2023-09-30T02:55:49;13.98;;;5.10;;
79009;SDS011;73031;44.726;37.760;2023-09-30T02:56:56;18.05;;;4.95;;
79009;SDS011;73031;44.726;37.760;2023-09-30T02:57:57;13.40;;;4.88;;
79009;SDS011;73031;44.726;37.760;2023-09-30T02:58:59;15.63;;;6.15;;
79009;SDS011;73031;44.726;37.760;2023-09-30T03:00:03;16.55;;;5.05;;
79009;SDS011;73031;44.726;37.760;2023-09-30T03:01:21;18.33;;;5.43;;
79009;SDS011;73031;44.726;37.760;2023-09-30T03:02:22;15.93;;;4.88;;
79009;SDS011;73031;44.726;37.760;2023-09-30T03:03:24;17.10;;;5.38;;
79009;SDS011;73031;44.726;37.760;2023-09-30T03:04:26;21.30;;;5.53;;
79009;SDS011;73031;44.726;37.760;2023-09-30T03:05:29;16.05;;;4.57;;
79009;SDS011;73031;44.726;37.760;2023-09-30T03:06:34;21.05;;;5.55;;
79009;SDS011;73031;44.726;37.760;2023-09-30T03:07:39;16.25;;;4.95;;
79009;SDS011;73031;44.726;37.760;2023-09-30T03:08:42;15.45;;;4.85;;
79009;SDS011;73031;44.726;37.760;2023-09-30T03:09:44;13.10;;;5.00;;
79009;SDS011;73031;44.726;37.760;2023-09-30T03:10:45;12.38;;;4.78;;
79009;SDS011;73031;44.726;37.760;2023-09-30T03:11:46;14.85;;;4.70;;
79009;SDS011;73031;44.726;37.760;2023-09-30T03:12:48;16.33;;;5.38;;
79009;SDS011;73031;44.726;37.760;2023-09-30T03:13:49;17.40;;;4.75;;
79009;SDS011;73031;44.726;37.760;2023-09-30T03:14:51;17.83;;;5.22;;
79009;SDS011;73031;44.726;37.760;2023-09-30T03:15:53;12.35;;;4.82;;
79009;SDS011;73031;44.726;37.760;2023-09-30T03:16:54;15.00;;;5.60;;
79009;SDS011;73031;44.726;37.760;2023-09-30T03:17:55;16.60;;;6.50;;
79009;SDS011;73031;44.726;37.760;2023-09-30T03:18:56;17.90;;;6.70;;
79009;SDS011;73031;44.726;37.760;2023-09-30T03:19:58;15.30;;;5.43;;
79009;SDS011;73031;44.726;37.760;2023-09-30T03:21:00;19.95;;;6.10;;
79009;SDS011;73031;44.726;37.760;2023-09-30T03:22:02;24.73;;;6.60;;
79009;SDS011;73031;44.726;37.760;2023-09-30T03:23:05;23.33;;;5.57;;
79009;SDS011;73031;44.726;37.760;2023-09-30T03:24:06;19.77;;;10.55;;
79009;SDS011;73031;44.726;37.760;2023-09-30T03:25:11;20.60;;;6.50;;
79009;SDS011;73031;44.726;37.760;2023-09-30T03:26:13;15.63;;;6.53;;
79009;SDS011;73031;44.726;37.760;2023-09-30T03:27:14;20.00;;;7.53;;
79009;SDS011;73031;44.726;37.760;2023-09-30T03:28:16;22.33;;;9.15;;
79009;SDS011;73031;44.726;37.760;2023-09-30T03:29:17;22.10;;;8.98;;
79009;SDS011;73031;44.726;37.760;2023-09-30T03:30:19;17.52;;;6.47;;
79009;SDS011;73031;44.726;37.760;2023-09-30T03:31:20;21.05;;;6.88;;
79009;SDS011;73031;44.726;37.760;2023-09-30T03:32:23;19.30;;;5.57;;
79009;SDS011;73031;44.726;37.760;2023-09-30T03:33:25;15.45;;;5.30;;
79009;SDS011;73031;44.726;37.760;2023-09-30T03:34:27;16.85;;;5.20;;
79009;SDS011;73031;44.726;37.760;2023-09-30T03:35:29;16.42;;;5.88;;
79009;SDS011;73031;44.726;37.760;2023-09-30T03:36:30;15.30;;;5.85;;
79009;SDS011;73031;44.726;37.760;2023-09-30T03:37:32;17.73;;;6.03;;
79009;SDS011;73031;44.726;37.760;2023-09-30T03:38:33;16.50;;;5.78;;
79009;SDS011;73031;44.726;37.760;2023-09-30T03:39:35;14.10;;;5.47;;
79009;SDS011;73031;44.726;37.760;2023-09-30T03:40:36;19.40;;;7.25;;
79009;SDS011;73031;44.726;37.760;2023-09-30T03:41:39;16.40;;;7.00;;
79009;SDS011;73031;44.726;37.760;2023-09-30T03:42:41;27.00;;;13.55;;
79009;SDS011;73031;44.726;37.760;2023-09-30T03:43:45;48.35;;;25.77;;
79009;SDS011;73031;44.726;37.760;2023-09-30T03:44:46;44.08;;;23.13;;
79009;SDS011;73031;44.726;37.760;2023-09-30T03:45:49;28.55;;;15.38;;
79009;SDS011;73031;44.726;37.760;2023-09-30T03:46:51;32.65;;;17.05;;
79009;SDS011;73031;44.726;37.760;2023-09-30T03:47:53;22.42;;;11.20;;
79009;SDS011;73031;44.726;37.760;2023-09-30T03:48:54;21.92;;;6.85;;
79009;SDS011;73031;44.726;37.760;2023-09-30T03:49:56;23.75;;;10.57;;
79009;SDS011;73031;44.726;37.760;2023-09-30T03:51:07;19.38;;;8.15;;
79009;SDS011;73031;44.726;37.760;2023-09-30T03:52:15;22.70;;;8.18;;
79009;SDS011;73031;44.726;37.760;2023-09-30T03:53:16;17.33;;;7.97;;
79009;SDS011;73031;44.726;37.760;2023-09-30T03:54:17;18.27;;;7.00;;
79009;SDS011;73031;44.726;37.760;2023-09-30T03:55:18;27.10;;;12.00;;
79009;SDS011;73031;44.726;37.760;2023-09-30T03:56:21;17.65;;;4.65;;
79009;SDS011;73031;44.726;37.760;2023-09-30T03:57:23;14.73;;;5.18;;
79009;SDS011;73031;44.726;37.760;2023-09-30T03:58:24;15.23;;;5.15;;
79009;SDS011;73031;44.726;37.760;2023-09-30T03:59:26;22.23;;;8.20;;
79009;SDS011;73031;44.726;37.760;2023-09-30T04:00:28;19.33;;;8.02;;
79009;SDS011;73031;44.726;37.760;2023-09-30T04:01:29;24.65;;;9.32;;
79009;SDS011;73031;44.726;37.760;2023-09-30T04:02:32;19.63;;;6.30;;
79009;SDS011;73031;44.726;37.760;2023-09-30T04:03:33;13.88;;;5.68;;
79009;SDS011;73031;44.726;37.760;2023-09-30T04:04:40;24.38;;;6.60;;
79009;SDS011;73031;44.726;37.760;2023-09-30T04:05:41;19.73;;;7.00;;
79009;SDS011;73031;44.726;37.760;2023-09-30T04:06:42;14.93;;;7.07;;
79009;SDS011;73031;44.726;37.760;2023-09-30T04:07:43;18.83;;;7.05;;
79009;SDS011;73031;44.726;37.760;2023-09-30T04:08:45;16.10;;;5.43;;
79009;SDS011;73031;44.726;37.760;2023-09-30T04:09:46;18.20;;;7.18;;
79009;SDS011;73031;44.726;37.760;2023-09-30T04:10:48;33.28;;;10.90;;
79009;SDS011;73031;44.726;37.760;2023-09-30T04:11:50;48.42;;;25.65;;
79009;SDS011;73031;44.726;37.760;2023-09-30T04:12:51;34.05;;;17.70;;
79009;SDS011;73031;44.726;37.760;2023-09-30T04:13:53;38.72;;;19.60;;
79009;SDS011;73031;44.726;37.760;2023-09-30T04:14:54;62.78;;;34.80;;
79009;SDS011;73031;44.726;37.760;2023-09-30T04:15:55;53.33;;;28.10;;
79009;SDS011;73031;44.726;37.760;2023-09-30T04:16:59;49.85;;;27.63;;
79009;SDS011;73031;44.726;37.760;2023-09-30T04:18:00;46.20;;;22.58;;
79009;SDS011;73031;44.726;37.760;2023-09-30T04:19:01;34.88;;;14.07;;
79009;SDS011;73031;44.726;37.760;2023-09-30T04:20:03;37.10;;;17.67;;
79009;SDS011;73031;44.726;37.760;2023-09-30T04:21:06;33.35;;;13.85;;
79009;SDS011;73031;44.726;37.760;2023-09-30T04:22:08;26.58;;;13.68;;
79009;SDS011;73031;44.726;37.760;2023-09-30T04:23:09;32.22;;;17.77;;
79009;SDS011;73031;44.726;37.760;2023-09-30T04:24:11;26.30;;;12.93;;
79009;SDS011;73031;44.726;37.760;2023-09-30T04:25:12;19.33;;;8.38;;
79009;SDS011;73031;44.726;37.760;2023-09-30T04:26:16;20.52;;;6.45;;
79009;SDS011;73031;44.726;37.760;2023-09-30T04:27:18;19.33;;;8.25;;
79009;SDS011;73031;44.726;37.760;2023-09-30T04:28:19;30.70;;;12.18;;
79009;SDS011;73031;44.726;37.760;2023-09-30T04:29:21;27.88;;;12.27;;
79009;SDS011;73031;44.726;37.760;2023-09-30T04:30:24;25.60;;;10.90;;
79009;SDS011;73031;44.726;37.760;2023-09-30T04:31:27;26.88;;;11.27;;
79009;SDS011;73031;44.726;37.760;2023-09-30T04:32:29;23.95;;;11.10;;
79009;SDS011;73031;44.726;37.760;2023-09-30T04:33:30;20.92;;;8.82;;
79009;SDS011;73031;44.726;37.760;2023-09-30T04:34:31;23.42;;;8.20;;
79009;SDS011;73031;44.726;37.760;2023-09-30T04:35:33;21.92;;;10.43;;
79009;SDS011;73031;44.726;37.760;2023-09-30T04:36:35;23.33;;;8.48;;
79009;SDS011;73031;44.726;37.760;2023-09-30T04:37:37;20.98;;;7.20;;
79009;SDS011;73031;44.726;37.760;2023-09-30T04:38:39;22.42;;;8.10;;
79009;SDS011;73031;44.726;37.760;2023-09-30T04:39:40;18.55;;;7.05;;
79009;SDS011;73031;44.726;37.760;2023-09-30T04:40:41;16.88;;;6.40;;
79009;SDS011;73031;44.726;37.760;2023-09-30T04:41:45;12.73;;;6.18;;
79009;SDS011;73031;44.726;37.760;2023-09-30T04:42:47;16.75;;;6.00;;
79009;SDS011;73031;44.726;37.760;2023-09-30T04:43:49;18.00;;;7.22;;
79009;SDS011;73031;44.726;37.760;2023-09-30T04:44:50;13.65;;;6.97;;
79009;SDS011;73031;44.726;37.760;2023-09-30T04:45:52;15.35;;;5.95;;
79009;SDS011;73031;44.726;37.760;2023-09-30T04:46:56;21.95;;;8.02;;
79009;SDS011;73031;44.726;37.760;2023-09-30T04:47:58;16.98;;;9.18;;
79009;SDS011;73031;44.726;37.760;2023-09-30T04:48:59;39.33;;;19.85;;
79009;SDS011;73031;44.726;37.760;2023-09-30T04:50:03;26.30;;;13.55;;
79009;SDS011;73031;44.726;37.760;2023-09-30T04:51:08;41.67;;;23.45;;
79009;SDS011;73031;44.726;37.760;2023-09-30T04:52:11;59.95;;;34.72;;
79009;SDS011;73031;44.726;37.760;2023-09-30T04:53:12;50.58;;;27.30;;
79009;SDS011;73031;44.726;37.760;2023-09-30T04:54:14;41.55;;;22.52;;
79009;SDS011;73031;44.726;37.760;2023-09-30T04:55:15;45.42;;;25.55;;
79009;SDS011;73031;44.726;37.760;2023-09-30T04:56:17;39.85;;;23.35;;
79009;SDS011;73031;44.726;37.760;2023-09-30T04:57:18;29.48;;;16.20;;
79009;SDS011;73031;44.726;37.760;2023-09-30T04:58:20;33.72;;;17.10;;
79009;SDS011;73031;44.726;37.760;2023-09-30T04:59:21;22.25;;;8.20;;
79009;SDS011;73031;44.726;37.760;2023-09-30T05:00:26;27.55;;;14.63;;
79009;SDS011;73031;44.726;37.760;2023-09-30T05:01:28;29.92;;;13.90;;
79009;SDS011;73031;44.726;37.760;2023-09-30T05:02:30;26.60;;;14.13;;
79009;SDS011;73031;44.726;37.760;2023-09-30T05:03:31;24.25;;;10.43;;
79009;SDS011;73031;44.726;37.760;2023-09-30T05:04:32;31.38;;;12.25;;
79009;SDS011;73031;44.726;37.760;2023-09-30T05:05:33;22.40;;;12.02;;
79009;SDS011;73031;44.726;37.760;2023-09-30T05:06:35;25.52;;;11.10;;
79009;SDS011;73031;44.726;37.760;2023-09-30T05:07:37;24.40;;;11.70;;
79009;SDS011;73031;44.726;37.760;2023-09-30T05:08:38;18.50;;;9.18;;
79009;SDS011;73031;44.726;37.760;2023-09-30T05:09:39;20.60;;;10.23;;
79009;SDS011;73031;44.726;37.760;2023-09-30T05:10:42;19.48;;;9.10;;
79009;SDS011;73031;44.726;37.760;2023-09-30T05:11:43;25.25;;;11.95;;
79009;SDS011;73031;44.726;37.760;2023-09-30T05:12:45;23.98;;;9.57;;
79009;SDS011;73031;44.726;37.760;2023-09-30T05:13:46;22.90;;;9.73;;
79009;SDS011;73031;44.726;37.760;2023-09-30T05:14:47;20.13;;;6.70;;
79009;SDS011;73031;44.726;37.760;2023-09-30T05:15:49;27.50;;;8.43;;
79009;SDS011;73031;44.726;37.760;2023-09-30T05:16:52;19.00;;;8.52;;
79009;SDS011;73031;44.726;37.760;2023-09-30T05:17:53;17.92;;;8.30;;
79009;SDS011;73031;44.726;37.760;2023-09-30T05:18:55;19.55;;;6.15;;
79009;SDS011;73031;44.726;37.760;2023-09-30T05:19:56;16.42;;;8.10;;
79009;SDS011;73031;44.726;37.760;2023-09-30T05:20:58;15.30;;;7.10;;
79009;SDS011;73031;44.726;37.760;2023-09-30T05:21:59;15.48;;;5.53;;
79009;SDS011;73031;44.726;37.760;2023-09-30T05:23:02;17.77;;;6.57;;
79009;SDS011;73031;44.726;37.760;2023-09-30T05:24:04;17.38;;;5.60;;
79009;SDS011;73031;44.726;37.760;2023-09-30T05:25:06;17.85;;;8.57;;
79009;SDS011;73031;44.726;37.760;2023-09-30T05:26:08;18.08;;;6.47;;
79009;SDS011;73031;44.726;37.760;2023-09-30T05:27:09;18.83;;;6.57;;
79009;SDS011;73031;44.726;37.760;2023-09-30T05:28:10;20.70;;;6.32;;
79009;SDS011;73031;44.726;37.760;2023-09-30T05:29:12;16.55;;;7.00;;
79009;SDS011;73031;44.726;37.760;2023-09-30T05:30:13;17.35;;;6.68;;
79009;SDS011;73031;44.726;37.760;2023-09-30T05:31:16;17.05;;;6.47;;
79009;SDS011;73031;44.726;37.760;2023-09-30T05:32:17;15.60;;;5.03;;
79009;SDS011;73031;44.726;37.760;2023-09-30T05:33:19;21.98;;;6.28;;
79009;SDS011;73031;44.726;37.760;2023-09-30T05:34:20;12.40;;;6.03;;
79009;SDS011;73031;44.726;37.760;2023-09-30T05:35:21;19.23;;;6.45;;
79009;SDS011;73031;44.726;37.760;2023-09-30T05:36:24;10.02;;;5.38;;
79009;SDS011;73031;44.726;37.760;2023-09-30T05:37:26;17.40;;;6.30;;
79009;SDS011;73031;44.726;37.760;2023-09-30T05:38:27;15.85;;;5.70;;
79009;SDS011;73031;44.726;37.760;2023-09-30T05:39:28;17.45;;;5.90;;
79009;SDS011;73031;44.726;37.760;2023-09-30T05:40:29;17.02;;;5.90;;
79009;SDS011;73031;44.726;37.760;2023-09-30T05:41:31;18.48;;;5.30;;
79009;SDS011;73031;44.726;37.760;2023-09-30T05:42:32;11.70;;;4.88;;
79009;SDS011;73031;44.726;37.760;2023-09-30T05:43:36;15.23;;;5.30;;
79009;SDS011;73031;44.726;37.760;2023-09-30T05:44:37;18.27;;;6.03;;
79009;SDS011;73031;44.726;37.760;2023-09-30T05:45:39;19.02;;;5.45;;
79009;SDS011;73031;44.726;37.760;2023-09-30T05:46:49;12.77;;;4.70;;
79009;SDS011;73031;44.726;37.760;2023-09-30T05:47:51;15.85;;;5.32;;
79009;SDS011;73031;44.726;37.760;2023-09-30T05:48:58;20.05;;;5.03;;
79009;SDS011;73031;44.726;37.760;2023-09-30T05:49:59;18.05;;;5.32;;
79009;SDS011;73031;44.726;37.760;2023-09-30T05:51:00;16.88;;;5.85;;
79009;SDS011;73031;44.726;37.760;2023-09-30T05:52:02;32.25;;;16.60;;
79009;SDS011;73031;44.726;37.760;2023-09-30T05:53:04;79.65;;;54.25;;
79009;SDS011;73031;44.726;37.760;2023-09-30T05:54:08;112.07;;;72.40;;
79009;SDS011;73031;44.726;37.760;2023-09-30T05:55:12;36.88;;;22.05;;
79009;SDS011;73031;44.726;37.760;2023-09-30T05:56:15;29.17;;;17.15;;
79009;SDS011;73031;44.726;37.760;2023-09-30T05:57:16;30.90;;;12.80;;
79009;SDS011;73031;44.726;37.760;2023-09-30T05:58:17;28.25;;;11.60;;
79009;SDS011;73031;44.726;37.760;2023-09-30T05:59:19;20.73;;;9.50;;
79009;SDS011;73031;44.726;37.760;2023-09-30T06:00:21;20.90;;;9.13;;